Aviation Digital Data Service (ADDS)

Output produced by METARs form (0010 UTC 24 February 2018)
found at http://aviationweather.gov/adds/metars/
 
KMDT 232356Z 16004KT 10SM OVC007 06/04 A3030 RMK AO2 SLP265 60004 T00610044 10061 20044 56023
KMDT 232256Z 00000KT 3SM BR OVC005 06/05 A3032 RMK AO2 SLP270 T00560050
KMDT 232156Z 12005KT 3SM BR OVC005 06/04 A3033 RMK AO2 SFC VIS 4 DZE51 SLP275 P0000 T00560044
KMDT 232154Z 13005KT 3SM BR OVC005 06/04 A3033 RMK AO2 SFC VIS 4 DZE51 P0000
KMDT 232056Z 09003KT 1SM R13/P6000FT -DZ BR OVC005 06/04 A3037 RMK AO2 SFC VIS 1 3/4 RAE46DZB53 CIG 003V009 SLP288 P0004 60004 T00560044 56025
KMDT 231956Z 12007KT 1SM R13/6000VP6000FT -RA BR OVC005 05/04 A3037 RMK AO2 SFC VIS 1 1/2 DZE53RAB53 CIG 003V009 SLP289 P0000 T00500039
KMDT 231903Z 13007KT 1SM R13/P6000FT -DZ BR OVC006 05/04 A3040 RMK AO2 SFC VIS 2 CIG 004V008 P0000 T00500039
KMDT 231856Z 12008KT 2SM -DZ BR OVC007 05/04 A3040 RMK AO2 DZB48 CIG 004V009 SLP296 P0000 T00500039
KMDT 231814Z 11008KT 2SM BR OVC007 05/03 A3043 RMK AO2 TWR VIS 3 CIG 004V010 T00500033
KMDT 231804Z 12008KT 1 3/4SM BR BKN005 OVC011 04/03 A3043 RMK AO2 TWR VIS 3 PRESFR T00440033
KMDT 231756Z 13007KT 2SM BR BKN005 OVC011 04/03 A3045 RMK AO2 TWR VIS 3 SLP313 60006 T00440033 10044 20039 58034
KMDT 231737Z 14004KT 2SM BR BKN006 OVC011 04/03 A3048 RMK AO2 TWR VIS 3 T00440033
KMDT 231712Z 13007KT 1 1/4SM R13/6000VP6000FT BR OVC008 04/03 A3048 RMK AO2 TWR VIS 3 T00440033
KMDT 231656Z 14007KT 1 1/2SM BR OVC010 04/03 A3050 RMK AO2 TWR VIS 3 SLP331 T00440028
KMDT 231647Z 14007KT 1 3/4SM BR OVC010 04/03 A3050 RMK AO2 TWR VIS 3 CIG 006V014 T00440028
KMDT 231556Z 16008KT 3SM BR OVC009 04/03 A3054 RMK AO2 SFC VIS 5 CIG 006V014 SLP344 T00440028
KMDT 231531Z 14008KT 3SM BR BKN007 OVC013 04/03 A3054 RMK AO2 T00390028
KMDT 231520Z 14007KT 1 3/4SM BR OVC007 04/03 A3055 RMK AO2 T00390028
KMDT 231456Z 13009KT 2 1/2SM BR OVC008 04/03 A3055 RMK AO2 DZE10 CIG 006V012 PRESFR SLP348 P0000 60006 T00390028 58008
KMDT 231445Z 14007KT 2SM BR BKN008 OVC012 04/03 A3057 RMK AO2 DZE10 CIG 006V010 P0000 T00390028
KMDT 231431Z 14009KT 2SM BR OVC010 04/02 A3056 RMK AO2 DZE10 CIG 006V013 P0000 T00390022
KMDT 231356Z 13007KT 6SM -DZ BR OVC008 04/03 A3057 RMK AO2 RAE08B11E48DZB48 CIG 006V011 SLP355 P0002 T00390028
KMDT 231346Z 12006KT 4SM -RA BR OVC009 04/02 A3057 RMK AO2 RAE08B11 CIG 006V012 P0002 T00390022
KMDT 231334Z 13007KT 2 1/2SM -RA BR OVC009 04/02 A3058 RMK AO2 TWR VIS 3 RAE08B11 CIG 006V014 P0002 T00390022
KMDT 231318Z 12009KT 4SM -RA BR BKN009 OVC015 04/02 A3056 RMK AO2 RAE08B11 CIG 007V011 P0000 T00390022
KMDT 231309Z 14007KT 6SM BR SCT010 OVC014 04/02 A3058 RMK AO2 RAE08 P0000 T00390022
KMDT 231256Z 13008KT 4SM -RA BR FEW010 OVC016 04/02 A3058 RMK AO2 DZE34RAB34 SLP358 P0004 T00390022
KMDT 231252Z 13008KT 3SM -RA BR SCT010 OVC016 04/02 A3057 RMK AO2 DZE34RAB34 P0004
KMDT 231242Z 13008KT 3SM -RA BR SCT009 BKN014 OVC018 04/02 A3057 RMK AO2 DZE34RAB34 P0003 T00390022
KMDT 231238Z 13007KT 2 1/2SM -RA BR SCT009 OVC018 04/02 A3057 RMK AO2 DZE34RAB34 P0003 T00390022
KMDT 231221Z 13008KT 2 1/2SM -DZ BR BKN009 OVC014 04/02 A3057 RMK AO2 CIG 008V012 P0001 T00390022
KMDT 231156Z 12006KT 6SM -DZ BR OVC009 04/02 A3058 RMK AO2 CIG 007V012 SLP358 P0000 60000 70019 T00390022 10039 20033 55002
KMDT 231056Z 13005KT 3SM -DZ BR BKN009 OVC015 03/02 A3057 RMK AO2 SLP356 P0000 T00330022
KMDT 230956Z 11007KT 4SM -DZ BR OVC008 03/02 A3057 RMK AO2 RAE55DZB55 CIG 006V011 SLP356 P0000 T00330022
KMDT 230856Z 11005KT 3SM -RA BR OVC007 03/02 A3058 RMK AO2 RAE03B32 CIG 005V010 SLP359 P0000 60000 T00330022 58010
KMDT 230756Z 12006KT 3SM -RA BR OVC008 03/02 A3059 RMK AO2 RAB53 CIG 006V012 SLP363 P0000 T00330022
KMDT 230712Z 09007KT 7SM OVC009 04/02 A3061 RMK AO2 T00390017
KMDT 230656Z 10009KT 8SM BKN010 OVC016 04/02 A3060 RMK AO2 DZE25 SLP367 P0000 T00390017
KMDT 230627Z 10010KT 7SM SCT008 OVC013 04/02 A3059 RMK AO2 DZE25 PRESFR P0000 T00390022
KMDT 230556Z 07004KT 3SM -DZ BR OVC008 04/02 A3061 RMK AO2 DZB52 SLP370 P0000 60000 T00390022 10050 20039 56000
KMDT 230456Z 07008KT 7SM OVC014 04/02 A3060 RMK AO2 SLP366 T00390022 401220039
KMDT 230356Z 08006KT 7SM OVC013 04/02 A3061 RMK AO2 DZE53 SLP370 P0000 T00390022
KMDT 230342Z 07007KT 5SM -DZ BR FEW007 OVC012 04/02 A3062 RMK AO2 P0000 T00390022
KMDT 230326Z 07005KT 3SM -DZ BR OVC010 04/02 A3062 RMK AO2 P0000 T00390022
KMDT 230256Z 07007KT 3SM -DZ BR OVC008 04/02 A3062 RMK AO2 DZB55 CIG 005V013 SLP374 P0000 60000 T00390022 51021
KMDT 230244Z 05003KT 4SM BR BKN009 OVC014 04/03 A3062 RMK AO2 CIG 005V011 T00390028
KMDT 230234Z 05004KT 5SM BR FEW009 OVC016 04/03 A3061 RMK AO2 T00440028
KMDT 230156Z 06006KT 9SM OVC017 04/02 A3061 RMK AO2 SLP369 T00440022
KMDT 230056Z 03003KT 10SM OVC015 05/03 A3059 RMK AO2 SLP364 T00500028
KMDT 230035Z 03003KT 10SM BKN015 OVC037 05/03 A3058 RMK AO2 T00500028
KMDT 222356Z 08004KT 10SM OVC038 05/03 A3056 RMK AO2 SLP353 60014 T00500028 10056 20044 50000
KMDT 222324Z 11004KT 10SM OVC038 05/02 A3057 RMK AO2 T00500022
KMDT 222256Z 09007KT 10SM SCT013 BKN028 OVC035 05/02 A3057 RMK AO2 SLP354 T00500022
KMDT 222226Z 09008KT 10SM SCT013 BKN028 OVC035 05/02 A3058 RMK AO2 T00500022
KMDT 222156Z 05005KT 10SM BKN013 OVC031 05/03 A3059 RMK AO2 RAE14 SLP362 P0001 T00500028
KMDT 222132Z 06007KT 10SM SCT013 OVC031 05/03 A3058 RMK AO2 RAE14 P0001 T00500028
KMDT 222056Z 05006KT 2 1/2SM -RA BR FEW009 OVC031 05/03 A3056 RMK AO2 SLP352 P0004 60013 T00500028 53017
KMDT 222044Z 05011KT 2 1/2SM -RA BR SCT009 OVC030 05/03 A3055 RMK AO2 P0004 T00500028
KMDT 222040Z 04010KT 2 1/2SM -RA BR BKN009 BKN025 OVC032 05/03 A3055 RMK AO2 P0004 T00500033
KMDT 221956Z 06006KT 2 1/2SM -RA BR FEW008 SCT018 OVC029 05/03 A3054 RMK AO2 SLP345 P0006 T00500033
KMDT 221944Z 05009KT 3SM -RA BR FEW008 BKN018 OVC025 05/03 A3054 RMK AO2 P0006 T00500033
KMDT 221936Z 04008KT 2 1/2SM -RA BR FEW006 SCT010 OVC020 05/03 A3054 RMK AO2 P0005 T00500033
KMDT 221925Z 03007KT 2SM -RA BR BKN008 BKN016 OVC022 05/03 A3054 RMK AO2 P0004 T00500033
KMDT 221921Z 04007G16KT 010V070 1 3/4SM -RA BR SCT008 BKN016 OVC022 05/03 A3054 RMK AO2 PRESRR P0004 T00500033
KMDT 221856Z 03006KT 1 1/2SM -RA BR BKN009 OVC014 05/04 A3052 RMK AO2 RAB20 SLP336 P0003 T00500039
KMDT 221853Z 03007KT 1 1/2SM R13/6000VP6000FT -RA BR BKN009 OVC014 05/04 A3051 RMK AO2 RAB20 P0003
KMDT 221821Z 04007KT 1 3/4SM -RA BR SCT008 OVC012 05/03 A3051 RMK AO2 RAB20 P0000 T00500033
KMDT 221805Z 04007KT 2 1/2SM BR BKN010 OVC015 06/04 A3051 RMK AO2 CIG 007V012 T00560039
KMDT 221756Z 06006KT 3SM BR BKN010 OVC016 06/03 A3051 RMK AO2 SLP332 60005 T00560033 10072 20056 56009
KMDT 221656Z 07005KT 10SM BKN016 OVC022 06/04 A3053 RMK AO2 RAE13 SLP339 P0000 T00610039
KMDT 221647Z 06003KT 10SM SCT013 OVC022 06/04 A3053 RMK AO2 RAE13 P0000 T00610039
KMDT 221618Z VRB04KT 5SM BR BKN010 OVC015 06/04 A3054 RMK AO2 RAE13 CIG 007V012 P0000 T00610039
KMDT 221601Z 08007KT 2SM -RA BR OVC013 06/04 A3053 RMK AO2 P0000 T00560044
KMDT 221556Z 08006KT 1 3/4SM -RA BR FEW007 OVC015 06/04 A3053 RMK AO2 RAB13 SLP342 P0004 T00610044
KMDT 221551Z 07006KT 1 1/2SM -RA BR OVC016 06/04 A3054 RMK AO2 RAB13 P0003
KMDT 221544Z 07006KT 1 1/2SM -RA BR FEW009 OVC014 06/04 A3054 RMK AO2 RAB13 P0003 T00560039
KMDT 221536Z 06004KT 1 1/2SM -RA BR BKN016 BKN020 OVC027 06/04 A3054 RMK AO2 RAB13 P0003 T00560039
KMDT 221521Z VRB04KT 2 1/2SM -RA SCT018 OVC029 06/03 A3055 RMK AO2 RAB13 P0001 T00610033
KMDT 221456Z VRB05KT 10SM OVC033 07/03 A3054 RMK AO2 RAB09E47 SLP344 P0001 60001 T00670028 50006
KMDT 221356Z VRB04KT 10SM OVC034 07/02 A3055 RMK AO2 RAE01 SLP346 P0000 T00670022
KMDT 221256Z 04004KT 10SM -RA OVC044 07/02 A3052 RMK AO2 SLP337 P0000 T00670022